Time;durP1;ratioP1;P1;durP2;ratioP2;P2;SDS_P1;SDS_P2;PMS_P1;PMS_P2;Temp;Humidity;BMP_temperature;BMP_pressure;BME280_temperature;BME280_humidity;BME280_pressure;Samples;Min_cycle;Max_cycle;Signal;HPM_P1;HPM_P2
2023/05/19 00:02:19;;;;;;;7.60;1.90;;;;;;;;;;5038768;28;20052;-74
2023/05/19 00:04:48;;;;;;;5.45;2.00;;;;;;;;;;5071856;28;20111;-74
2023/05/19 00:07:19;;;;;;;4.97;2.20;;;;;;;;;;5038762;28;20092;-74
2023/05/19 00:09:46;;;;;;;6.35;2.08;;;;;;;;;;5074926;28;20084;-75
2023/05/19 00:12:13;;;;;;;5.82;1.88;;;;;;;;;;5058478;28;20547;-75
2023/05/19 00:14:40;;;;;;;6.53;2.00;;;;;;;;;;5075093;28;20106;-74
2023/05/19 00:17:07;;;;;;;4.95;2.40;;;;;;;;;;5075398;28;20052;-75
2023/05/19 00:19:34;;;;;;;6.63;2.15;;;;;;;;;;5058278;28;20087;-74
2023/05/19 00:22:01;;;;;;;6.57;2.05;;;;;;;;;;5058393;28;20094;-73
2023/05/19 00:24:27;;;;;;;12.10;3.42;;;;;;;;;;5074747;28;20135;-75
2023/05/19 00:26:54;;;;;;;4.93;1.88;;;;;;;;;;5058280;28;20055;-76
2023/05/19 00:29:21;;;;;;;5.05;1.90;;;;;;;;;;5074832;28;20078;-74
2023/05/19 00:31:48;;;;;;;5.20;1.70;;;;;;;;;;5074458;28;20101;-75
2023/05/19 00:34:15;;;;;;;6.97;2.17;;;;;;;;;;5074578;28;20060;-74
2023/05/19 00:36:41;;;;;;;8.27;2.22;;;;;;;;;;5074595;28;20107;-74
2023/05/19 00:39:08;;;;;;;7.30;2.50;;;;;;;;;;5048975;28;20063;-75
2023/05/19 00:41:35;;;;;;;4.63;1.92;;;;;;;;;;5054295;28;20178;-75
2023/05/19 00:44:01;;;;;;;4.88;2.10;;;;;;;;;;5054551;28;20144;-75
2023/05/19 00:46:29;;;;;;;6.25;1.90;;;;;;;;;;5054449;28;20095;-75
2023/05/19 00:48:56;;;;;;;6.80;2.00;;;;;;;;;;5038028;28;20110;-74
2023/05/19 00:51:23;;;;;;;6.95;2.10;;;;;;;;;;5037842;28;20132;-75
2023/05/19 00:53:50;;;;;;;5.65;2.58;;;;;;;;;;5071943;28;20566;-74
2023/05/19 00:56:17;;;;;;;6.30;2.80;;;;;;;;;;5074015;28;20052;-74
2023/05/19 00:58:44;;;;;;;6.85;1.80;;;;;;;;;;5057908;28;20052;-75
2023/05/19 01:01:13;;;;;;;6.90;2.45;;;;;;;;;;5073794;28;20458;-74
2023/05/19 01:03:41;;;;;;;5.57;2.35;;;;;;;;;;5074323;28;20545;-74
2023/05/19 01:06:08;;;;;;;3.88;1.80;;;;;;;;;;5043789;28;20116;-74
2023/05/19 01:08:36;;;;;;;4.88;2.15;;;;;;;;;;5054162;28;20140;-75
2023/05/19 01:11:04;;;;;;;3.25;2.10;;;;;;;;;;5037181;28;20135;-75
2023/05/19 01:13:31;;;;;;;3.42;2.08;;;;;;;;;;5037497;28;20092;-75
2023/05/19 01:16:00;;;;;;;5.00;1.63;;;;;;;;;;5053637;28;20071;-75
2023/05/19 01:18:38;;;;;;;6.05;2.17;;;;;;;;;;5053945;28;20052;-75
2023/05/19 01:21:35;;;;;;;5.28;1.88;;;;;;;;;;5053618;28;20063;-74
2023/05/19 01:24:14;;;;;;;4.75;2.22;;;;;;;;;;5069048;28;20060;-75
2023/05/19 01:26:47;;;;;;;3.97;1.98;;;;;;;;;;5073715;28;20534;-75
2023/05/19 01:29:26;;;;;;;5.97;2.20;;;;;;;;;;5073924;28;20106;-74
2023/05/19 01:31:53;;;;;;;3.67;2.00;;;;;;;;;;5056790;28;20048;-75
2023/05/19 01:34:20;;;;;;;4.25;2.25;;;;;;;;;;5057067;28;20109;-75
2023/05/19 01:36:48;;;;;;;6.38;2.50;;;;;;;;;;5073305;28;20123;-74
2023/05/19 01:39:14;;;;;;;5.05;2.17;;;;;;;;;;5073475;28;20075;-74
2023/05/19 01:41:41;;;;;;;5.88;2.10;;;;;;;;;;5073259;28;20084;-74
2023/05/19 01:44:08;;;;;;;7.00;2.38;;;;;;;;;;5073585;28;20056;-74
2023/05/19 01:46:36;;;;;;;3.35;2.03;;;;;;;;;;5073377;28;20138;-74
2023/05/19 01:49:04;;;;;;;4.88;2.05;;;;;;;;;;5074466;28;20139;-75
2023/05/19 01:51:30;;;;;;;5.00;2.13;;;;;;;;;;5058319;28;20073;-75
2023/05/19 01:53:57;;;;;;;6.65;1.90;;;;;;;;;;5075595;28;20111;-75
2023/05/19 01:56:31;;;;;;;6.85;1.98;;;;;;;;;;5074960;28;20803;-76
2023/05/19 01:59:02;;;;;;;4.82;2.05;;;;;;;;;;5074616;28;20143;-74
2023/05/19 02:01:51;;;;;;;4.93;1.90;;;;;;;;;;5073457;28;20055;-74
2023/05/19 02:05:09;;;;;;;5.38;2.03;;;;;;;;;;5057281;28;20138;-74
2023/05/19 02:07:51;;;;;;;4.55;1.92;;;;;;;;;;4976675;28;20055;-74
2023/05/19 02:10:22;;;;;;;5.80;2.22;;;;;;;;;;4956095;28;20110;-75
2023/05/19 02:12:48;;;;;;;8.35;2.10;;;;;;;;;;5022146;28;20582;-74
2023/05/19 02:15:16;;;;;;;5.63;1.98;;;;;;;;;;5020415;28;20099;-74
2023/05/19 02:17:49;;;;;;;8.38;2.25;;;;;;;;;;5052856;28;20525;-74
2023/05/19 02:20:16;;;;;;;2.78;1.88;;;;;;;;;;5056766;28;20048;-74
2023/05/19 02:22:44;;;;;;;6.20;2.92;;;;;;;;;;5073035;28;20109;-74
2023/05/19 02:25:10;;;;;;;4.65;2.10;;;;;;;;;;5073098;28;20493;-74
2023/05/19 02:27:38;;;;;;;4.57;2.00;;;;;;;;;;5073001;28;20052;-74
2023/05/19 02:30:05;;;;;;;6.00;2.25;;;;;;;;;;5090830;28;20060;-75
2023/05/19 02:32:32;;;;;;;5.95;1.90;;;;;;;;;;5056225;28;20110;-75
2023/05/19 02:34:59;;;;;;;9.85;2.63;;;;;;;;;;5072570;28;20106;-75
2023/05/19 02:37:29;;;;;;;7.65;2.55;;;;;;;;;;5072814;28;20105;-75
2023/05/19 02:39:56;;;;;;;4.72;2.20;;;;;;;;;;5056648;28;20052;-75
2023/05/19 02:42:23;;;;;;;4.80;2.00;;;;;;;;;;5072827;28;20101;-75
2023/05/19 02:44:51;;;;;;;6.03;2.13;;;;;;;;;;5056189;28;20060;-74
2023/05/19 02:47:17;;;;;;;6.72;3.03;;;;;;;;;;5072728;28;20055;-74
2023/05/19 02:49:44;;;;;;;7.20;2.47;;;;;;;;;;5056778;28;20101;-74
2023/05/19 02:52:11;;;;;;;5.47;2.60;;;;;;;;;;5076790;28;20055;-74
2023/05/19 02:54:38;;;;;;;5.45;2.30;;;;;;;;;;5081828;28;20703;-74
2023/05/19 02:57:05;;;;;;;4.60;2.35;;;;;;;;;;5076688;28;20139;-73
2023/05/19 02:59:32;;;;;;;4.40;2.15;;;;;;;;;;5076690;28;20060;-74
2023/05/19 03:02:00;;;;;;;4.47;2.47;;;;;;;;;;5075867;28;20097;-74
2023/05/19 03:04:28;;;;;;;7.28;2.50;;;;;;;;;;5076604;28;20054;-74
2023/05/19 03:06:56;;;;;;;5.80;2.55;;;;;;;;;;5043377;28;20060;-74
2023/05/19 03:09:23;;;;;;;5.03;2.67;;;;;;;;;;5043754;28;20139;-75
2023/05/19 03:11:50;;;;;;;7.50;2.40;;;;;;;;;;5076238;28;20055;-75
2023/05/19 03:14:17;;;;;;;4.75;2.40;;;;;;;;;;5076401;28;20048;-74
2023/05/19 03:16:44;;;;;;;7.28;2.45;;;;;;;;;;5059290;28;20499;-75
2023/05/19 03:19:11;;;;;;;4.00;2.30;;;;;;;;;;5076325;28;20056;-75
2023/05/19 03:21:38;;;;;;;8.27;2.78;;;;;;;;;;5075973;28;20511;-75
2023/05/19 03:24:05;;;;;;;4.50;2.42;;;;;;;;;;5076226;28;20059;-75
2023/05/19 03:26:32;;;;;;;4.97;2.20;;;;;;;;;;5076041;28;20070;-75
2023/05/19 03:28:58;;;;;;;5.88;2.60;;;;;;;;;;5075936;28;20052;-75
2023/05/19 03:31:25;;;;;;;8.35;2.70;;;;;;;;;;5075325;28;20048;-75
2023/05/19 03:33:52;;;;;;;6.20;2.67;;;;;;;;;;5076177;28;20083;-76
2023/05/19 03:39:59;;;;;;;8.18;2.80;;;;;;;;;;5089332;28;20051;-74
2023/05/19 03:42:26;;;;;;;6.45;2.45;;;;;;;;;;5059308;28;20098;-75
2023/05/19 03:44:53;;;;;;;6.65;2.72;;;;;;;;;;5062657;28;20732;-76
2023/05/19 03:47:20;;;;;;;4.35;2.60;;;;;;;;;;5059104;28;20428;-76
2023/05/19 03:49:47;;;;;;;7.05;3.22;;;;;;;;;;5042709;28;20048;-75
2023/05/19 03:52:14;;;;;;;4.57;2.50;;;;;;;;;;5075597;28;20048;-76
2023/05/19 03:54:41;;;;;;;7.88;3.70;;;;;;;;;;5059115;28;20048;-77
2023/05/19 03:57:09;;;;;;;3.97;2.83;;;;;;;;;;5086406;28;20129;-76
2023/05/19 03:59:36;;;;;;;5.53;2.45;;;;;;;;;;5056717;28;20106;-74
2023/05/19 04:02:03;;;;;;;6.68;2.80;;;;;;;;;;5061168;28;20076;-76
2023/05/19 04:04:31;;;;;;;4.60;2.58;;;;;;;;;;5075368;28;20083;-75
2023/05/19 04:06:58;;;;;;;5.65;2.60;;;;;;;;;;5059387;28;20125;-76
2023/05/19 04:09:24;;;;;;;4.45;2.30;;;;;;;;;;5075631;28;20056;-76
2023/05/19 04:11:51;;;;;;;4.97;2.70;;;;;;;;;;5055131;28;20048;-76
2023/05/19 04:14:19;;;;;;;4.82;2.67;;;;;;;;;;5055825;28;20102;-77
2023/05/19 04:16:45;;;;;;;4.93;2.47;;;;;;;;;;5055314;28;20154;-76
2023/05/19 04:19:12;;;;;;;6.20;3.15;;;;;;;;;;5038840;28;20109;-75
2023/05/19 04:21:39;;;;;;;7.65;2.78;;;;;;;;;;5073020;28;20411;-76
2023/05/19 04:24:06;;;;;;;8.45;2.97;;;;;;;;;;5075076;28;20079;-77
2023/05/19 04:26:33;;;;;;;6.90;2.70;;;;;;;;;;5075071;28;20047;-76
2023/05/19 04:29:03;;;;;;;5.05;2.30;;;;;;;;;;5061548;28;20056;-76
2023/05/19 04:31:30;;;;;;;6.68;2.60;;;;;;;;;;5074924;28;20059;-76
2023/05/19 04:33:57;;;;;;;11.68;4.10;;;;;;;;;;5074681;28;20514;-76
2023/05/19 04:36:24;;;;;;;8.57;2.42;;;;;;;;;;5058439;28;20557;-76
2023/05/19 04:38:53;;;;;;;6.40;2.22;;;;;;;;;;5074837;28;20620;-76
2023/05/19 04:41:20;;;;;;;8.30;2.63;;;;;;;;;;5091384;28;20095;-76
2023/05/19 04:43:48;;;;;;;11.10;3.15;;;;;;;;;;5091388;28;20078;-76
2023/05/19 04:46:15;;;;;;;4.35;2.47;;;;;;;;;;5074726;28;20420;-77
2023/05/19 04:48:42;;;;;;;6.03;2.30;;;;;;;;;;5092763;28;20070;-75
2023/05/19 04:51:12;;;;;;;6.13;2.85;;;;;;;;;;5057874;28;20519;-76
2023/05/19 04:53:41;;;;;;;6.13;2.53;;;;;;;;;;5074660;28;20476;-76
2023/05/19 04:56:14;;;;;;;6.32;2.92;;;;;;;;;;5059773;28;20048;-76
2023/05/19 04:58:43;;;;;;;;;;;;;;;;;;5075965;28;20048;-76
2023/05/19 05:01:12;;;;;;;7.50;2.80;;;;;;;;;;5057369;28;19932;-75
2023/05/19 05:03:39;;;;;;;8.05;2.80;;;;;;;;;;5058603;28;20538;-75
2023/05/19 05:06:06;;;;;;;5.72;2.45;;;;;;;;;;5074837;28;20450;-76
2023/05/19 05:08:33;;;;;;;5.07;2.58;;;;;;;;;;5057660;28;20059;-76
2023/05/19 05:11:00;;;;;;;5.97;2.20;;;;;;;;;;5057446;28;20060;-75
2023/05/19 05:13:27;;;;;;;6.50;2.65;;;;;;;;;;5053127;28;20052;-75
2023/05/19 05:15:54;;;;;;;6.60;2.97;;;;;;;;;;5053763;28;20094;-76
2023/05/19 05:18:22;;;;;;;6.95;2.72;;;;;;;;;;5057519;28;20044;-76
2023/05/19 05:20:49;;;;;;;5.15;2.45;;;;;;;;;;5092133;28;20048;-76
2023/05/19 05:23:16;;;;;;;8.77;2.20;;;;;;;;;;5074055;28;20092;-75
2023/05/19 05:25:43;;;;;;;4.78;2.28;;;;;;;;;;5056811;28;20109;-75
2023/05/19 05:28:10;;;;;;;8.70;2.70;;;;;;;;;;5073728;28;20091;-76
2023/05/19 05:30:37;;;;;;;7.20;2.97;;;;;;;;;;5073564;28;20557;-75
2023/05/19 05:33:03;;;;;;;3.75;2.38;;;;;;;;;;5073824;28;20056;-75
2023/05/19 05:35:31;;;;;;;4.15;2.17;;;;;;;;;;5073828;28;20500;-77
2023/05/19 05:37:58;;;;;;;5.35;2.92;;;;;;;;;;5074419;28;20524;-76
2023/05/19 05:40:25;;;;;;;6.95;2.58;;;;;;;;;;5057086;28;20087;-76
2023/05/19 05:42:51;;;;;;;5.88;2.67;;;;;;;;;;5073446;28;20083;-76
2023/05/19 05:45:18;;;;;;;6.43;2.38;;;;;;;;;;5073908;28;20059;-77
2023/05/19 05:47:45;;;;;;;7.03;3.38;;;;;;;;;;5057148;28;20056;-78
2023/05/19 05:50:12;;;;;;;5.13;2.42;;;;;;;;;;5073932;28;20083;-72
2023/05/19 05:52:39;;;;;;;9.25;2.60;;;;;;;;;;5073042;28;20091;-73
2023/05/19 05:55:07;;;;;;;7.03;2.38;;;;;;;;;;5056791;28;20097;-73
2023/05/19 05:57:35;;;;;;;5.65;2.30;;;;;;;;;;5077133;28;20105;-73
2023/05/19 06:00:06;;;;;;;5.25;2.40;;;;;;;;;;5073959;28;20420;-72
2023/05/19 06:02:32;;;;;;;8.77;2.60;;;;;;;;;;5057849;28;20052;-72
2023/05/19 06:04:59;;;;;;;4.53;2.03;;;;;;;;;;5056064;28;20393;-73
2023/05/19 06:07:26;;;;;;;9.05;2.50;;;;;;;;;;5089355;28;20048;-73
2023/05/19 06:09:53;;;;;;;7.70;2.47;;;;;;;;;;5071674;28;20091;-72
2023/05/19 06:12:21;;;;;;;7.90;2.63;;;;;;;;;;5071815;28;20056;-72
2023/05/19 06:14:48;;;;;;;5.30;2.13;;;;;;;;;;5071697;28;20048;-72
2023/05/19 06:17:15;;;;;;;7.00;2.53;;;;;;;;;;5072089;28;20098;-74
2023/05/19 06:19:42;;;;;;;7.20;2.85;;;;;;;;;;5071859;28;20063;-74
2023/05/19 06:22:08;;;;;;;5.25;2.20;;;;;;;;;;5071879;28;20412;-75
2023/05/19 06:24:35;;;;;;;7.10;2.60;;;;;;;;;;5057283;28;20094;-74
2023/05/19 06:27:04;;;;;;;5.72;2.53;;;;;;;;;;5076259;28;20059;-75
2023/05/19 06:29:31;;;;;;;8.20;2.65;;;;;;;;;;5075621;28;20051;-74
2023/05/19 06:31:58;;;;;;;6.43;2.60;;;;;;;;;;5058890;28;20140;-74
2023/05/19 06:34:25;;;;;;;6.43;2.40;;;;;;;;;;5075673;28;20056;-74
2023/05/19 06:36:52;;;;;;;7.65;2.78;;;;;;;;;;5075327;28;20052;-74
2023/05/19 06:39:18;;;;;;;5.07;2.28;;;;;;;;;;5076026;28;20071;-75
2023/05/19 06:41:45;;;;;;;8.13;2.50;;;;;;;;;;5059083;28;20083;-74
2023/05/19 06:44:12;;;;;;;7.90;2.85;;;;;;;;;;5059012;28;20051;-75
2023/05/19 06:46:39;;;;;;;6.30;2.65;;;;;;;;;;5075341;28;20055;-74
2023/05/19 06:49:06;;;;;;;5.68;3.13;;;;;;;;;;5058637;28;20542;-74
2023/05/19 06:51:34;;;;;;;5.47;2.15;;;;;;;;;;5075283;28;20059;-75
2023/05/19 06:54:01;;;;;;;4.47;2.50;;;;;;;;;;5058670;28;20048;-74
2023/05/19 06:56:28;;;;;;;9.13;3.00;;;;;;;;;;5058603;28;20055;-73
2023/05/19 06:58:54;;;;;;;7.80;2.83;;;;;;;;;;5075162;28;20491;-74
2023/05/19 07:01:21;;;;;;;6.28;2.47;;;;;;;;;;5058451;28;20660;-75
2023/05/19 07:03:48;;;;;;;3.42;2.30;;;;;;;;;;5074874;28;20047;-75
2023/05/19 07:06:15;;;;;;;9.82;3.60;;;;;;;;;;5074983;28;20056;-75
2023/05/19 07:08:42;;;;;;;10.07;2.90;;;;;;;;;;5075028;28;20105;-75
2023/05/19 07:11:11;;;;;;;9.45;2.80;;;;;;;;;;5074692;28;20063;-76
2023/05/19 07:13:37;;;;;;;10.13;3.15;;;;;;;;;;5074786;28;20502;-76
2023/05/19 07:16:04;;;;;;;6.60;2.22;;;;;;;;;;5074826;28;20059;-76
2023/05/19 07:18:31;;;;;;;7.15;2.58;;;;;;;;;;5058235;28;20723;-76
2023/05/19 07:20:58;;;;;;;5.18;2.67;;;;;;;;;;5074544;28;20466;-76
2023/05/19 07:23:25;;;;;;;9.98;3.10;;;;;;;;;;5074289;28;20055;-75
2023/05/19 07:25:55;;;;;;;5.70;2.28;;;;;;;;;;5080455;28;20056;-78
2023/05/19 07:28:22;;;;;;;6.40;2.30;;;;;;;;;;5063453;28;20083;-75
2023/05/19 07:30:49;;;;;;;6.45;2.88;;;;;;;;;;5074224;28;20056;-75
2023/05/19 07:33:16;;;;;;;6.07;2.47;;;;;;;;;;5074009;28;20465;-75
2023/05/19 07:35:44;;;;;;;5.05;2.10;;;;;;;;;;5073754;28;20113;-75
2023/05/19 07:38:11;;;;;;;5.47;2.63;;;;;;;;;;5058080;28;20393;-75
2023/05/19 07:40:38;;;;;;;4.95;2.10;;;;;;;;;;5074109;28;20415;-75
2023/05/19 07:43:04;;;;;;;7.25;2.58;;;;;;;;;;5074416;28;20044;-75
2023/05/19 07:45:31;;;;;;;7.95;2.35;;;;;;;;;;5074353;28;20052;-75
2023/05/19 07:47:58;;;;;;;5.85;2.38;;;;;;;;;;5074660;28;20052;-75
2023/05/19 07:50:25;;;;;;;7.35;2.58;;;;;;;;;;5074740;28;20105;-75
2023/05/19 07:52:52;;;;;;;6.72;2.42;;;;;;;;;;5074624;28;20472;-75
2023/05/19 07:55:21;;;;;;;8.60;2.88;;;;;;;;;;5074471;28;20056;-76
2023/05/19 07:57:49;;;;;;;4.85;2.33;;;;;;;;;;5074856;28;20070;-75
2023/05/19 08:00:16;;;;;;;5.95;2.25;;;;;;;;;;5074321;28;20408;-75
2023/05/19 08:02:43;;;;;;;6.50;2.00;;;;;;;;;;5073917;28;20052;-76
2023/05/19 08:05:10;;;;;;;4.22;2.05;;;;;;;;;;5057413;28;20056;-77
2023/05/19 08:07:37;;;;;;;7.05;2.40;;;;;;;;;;5073791;28;20056;-76
2023/05/19 08:10:04;;;;;;;5.82;3.13;;;;;;;;;;5056892;28;20496;-76
2023/05/19 08:12:31;;;;;;;8.10;2.38;;;;;;;;;;5073121;28;20040;-76
2023/05/19 08:14:58;;;;;;;9.50;2.80;;;;;;;;;;5073462;28;20074;-75
2023/05/19 08:17:27;;;;;;;5.82;2.17;;;;;;;;;;5073933;28;20419;-77
2023/05/19 08:19:54;;;;;;;5.97;2.08;;;;;;;;;;5073558;28;20127;-76
2023/05/19 08:22:21;;;;;;;8.40;2.33;;;;;;;;;;5073571;28;20091;-76
2023/05/19 08:24:48;;;;;;;8.25;2.47;;;;;;;;;;5075747;28;20052;-81
2023/05/19 08:27:15;;;;;;;7.78;2.55;;;;;;;;;;5051301;28;20113;-76
2023/05/19 08:29:42;;;;;;;7.88;2.30;;;;;;;;;;5072806;28;20053;-76
2023/05/19 08:32:09;;;;;;;5.15;2.25;;;;;;;;;;5089946;28;20044;-73
2023/05/19 08:34:38;;;;;;;5.18;2.33;;;;;;;;;;5073916;28;20131;-73
2023/05/19 08:37:06;;;;;;;7.07;2.60;;;;;;;;;;5074709;28;20105;-73
2023/05/19 08:39:33;;;;;;;6.45;2.72;;;;;;;;;;5074493;28;20109;-73
2023/05/19 08:42:01;;;;;;;8.07;2.35;;;;;;;;;;5074470;28;20055;-73
2023/05/19 08:44:29;;;;;;;6.30;2.13;;;;;;;;;;5057837;28;20044;-73
2023/05/19 08:46:56;;;;;;;5.68;2.22;;;;;;;;;;5073296;28;20048;-74
2023/05/19 08:49:29;;;;;;;7.20;3.13;;;;;;;;;;5057852;28;20062;-73
2023/05/19 08:52:26;;;;;;;7.82;2.45;;;;;;;;;;5074367;28;20090;-73
2023/05/19 08:55:04;;;;;;;10.20;3.03;;;;;;;;;;5057907;28;20496;-73
2023/05/19 08:57:31;;;;;;;6.90;2.38;;;;;;;;;;5074575;28;20052;-73
2023/05/19 08:59:58;;;;;;;6.53;2.58;;;;;;;;;;5075059;28;20136;-73
2023/05/19 09:02:25;;;;;;;5.25;2.03;;;;;;;;;;5058691;28;20071;-73
2023/05/19 09:04:52;;;;;;;7.63;2.55;;;;;;;;;;5042414;28;20130;-73
2023/05/19 09:07:18;;;;;;;6.22;2.33;;;;;;;;;;5057704;28;20139;-73
2023/05/19 09:09:46;;;;;;;7.50;2.58;;;;;;;;;;5057737;28;20052;-73
2023/05/19 09:12:13;;;;;;;5.25;2.13;;;;;;;;;;5074125;28;20135;-73
2023/05/19 09:14:40;;;;;;;6.05;2.50;;;;;;;;;;5073726;28;20052;-73
2023/05/19 09:17:06;;;;;;;9.63;2.90;;;;;;;;;;5073847;28;20135;-73
2023/05/19 09:19:33;;;;;;;8.90;2.40;;;;;;;;;;5073918;28;20052;-73
2023/05/19 09:22:04;;;;;;;4.60;1.85;;;;;;;;;;5073665;28;20528;-73
2023/05/19 09:24:31;;;;;;;7.38;3.03;;;;;;;;;;5073746;28;20051;-73
2023/05/19 09:26:57;;;;;;;7.85;2.67;;;;;;;;;;5057297;28;20059;-73
2023/05/19 09:29:25;;;;;;;6.05;2.33;;;;;;;;;;5073799;28;20189;-73
2023/05/19 09:31:59;;;;;;;10.95;2.53;;;;;;;;;;5073198;28;20052;-73
2023/05/19 09:34:26;;;;;;;5.43;2.53;;;;;;;;;;5073586;28;20084;-73
2023/05/19 09:36:53;;;;;;;5.47;2.22;;;;;;;;;;5073590;28;20048;-73
2023/05/19 09:39:21;;;;;;;8.18;2.40;;;;;;;;;;5073523;28;20055;-73
2023/05/19 09:41:53;;;;;;;5.28;2.20;;;;;;;;;;5048890;28;20463;-73
2023/05/19 09:44:22;;;;;;;4.82;2.80;;;;;;;;;;5051584;28;20550;-73
2023/05/19 09:46:50;;;;;;;4.65;2.20;;;;;;;;;;5072411;28;20086;-73
2023/05/19 09:49:25;;;;;;;4.53;2.33;;;;;;;;;;5073481;28;20048;-73
2023/05/19 09:51:59;;;;;;;5.75;2.58;;;;;;;;;;5073521;28;20056;-73
2023/05/19 09:54:30;;;;;;;6.88;2.80;;;;;;;;;;5073151;28;20051;-73
2023/05/19 09:57:02;;;;;;;9.88;4.43;;;;;;;;;;5073341;28;20060;-73
2023/05/19 09:59:29;;;;;;;6.70;2.50;;;;;;;;;;5072907;28;20392;-74
2023/05/19 10:02:00;;;;;;;6.28;2.15;;;;;;;;;;5073800;28;20135;-74
2023/05/19 10:04:28;;;;;;;4.53;2.65;;;;;;;;;;5073291;28;20087;-74
2023/05/19 10:06:59;;;;;;;7.57;3.17;;;;;;;;;;5056752;28;20423;-74
2023/05/19 10:09:28;;;;;;;8.98;2.63;;;;;;;;;;5056550;28;20052;-74
2023/05/19 10:11:56;;;;;;;7.22;2.70;;;;;;;;;;5056594;28;20499;-74
2023/05/19 10:14:26;;;;;;;7.40;3.00;;;;;;;;;;5056822;28;20052;-74
2023/05/19 10:16:54;;;;;;;6.72;2.50;;;;;;;;;;5056650;28;20052;-74
2023/05/19 10:19:27;;;;;;;8.55;2.13;;;;;;;;;;5073136;28;20052;-74
2023/05/19 10:21:55;;;;;;;7.00;2.05;;;;;;;;;;5056310;28;20110;-74
2023/05/19 10:24:22;;;;;;;6.10;2.50;;;;;;;;;;5072885;28;20499;-74
2023/05/19 10:27:03;;;;;;;5.45;2.45;;;;;;;;;;5073159;28;20047;-74
2023/05/19 10:29:33;;;;;;;8.30;2.83;;;;;;;;;;5042970;28;20512;-74
2023/05/19 10:32:03;;;;;;;3.83;2.22;;;;;;;;;;5052676;28;20147;-74
2023/05/19 10:34:36;;;;;;;4.65;2.42;;;;;;;;;;5036531;28;20053;-75
2023/05/19 10:37:15;;;;;;;5.63;2.42;;;;;;;;;;5052807;28;20071;-74
2023/05/19 10:39:43;;;;;;;5.55;2.65;;;;;;;;;;5052896;28;20048;-74
2023/05/19 10:42:33;;;;;;;3.55;2.10;;;;;;;;;;5058907;28;20417;-73
2023/05/19 10:45:14;;;;;;;6.60;2.30;;;;;;;;;;5056378;28;20091;-74
2023/05/19 10:47:41;;;;;;;5.85;2.42;;;;;;;;;;5073007;28;20474;-74
2023/05/19 10:50:08;;;;;;;6.82;2.30;;;;;;;;;;5072608;28;20059;-73
2023/05/19 10:52:39;;;;;;;4.38;1.90;;;;;;;;;;5039752;28;20140;-74
2023/05/19 10:55:07;;;;;;;5.78;2.65;;;;;;;;;;5072485;28;20101;-74
2023/05/19 10:57:35;;;;;;;6.80;2.25;;;;;;;;;;5069829;28;20541;-74
2023/05/19 11:00:24;;;;;;;8.25;2.63;;;;;;;;;;5056187;28;20079;-74
2023/05/19 11:02:55;;;;;;;5.68;2.67;;;;;;;;;;5072858;28;20083;-74
2023/05/19 11:05:28;;;;;;;4.13;2.88;;;;;;;;;;5056494;28;20056;-73
2023/05/19 11:07:56;;;;;;;5.03;2.47;;;;;;;;;;5072632;28;20056;-74
2023/05/19 11:10:23;;;;;;;7.90;2.40;;;;;;;;;;5072658;28;20044;-73
2023/05/19 11:12:50;;;;;;;5.82;2.50;;;;;;;;;;5076293;28;20055;-73
2023/05/19 11:15:18;;;;;;;3.20;2.08;;;;;;;;;;5076122;28;20153;-73
2023/05/19 11:17:47;;;;;;;5.63;2.22;;;;;;;;;;5042857;28;20054;-73
2023/05/19 11:20:28;;;;;;;4.28;2.10;;;;;;;;;;5094024;28;20794;-73
2023/05/19 11:23:04;;;;;;;7.30;2.85;;;;;;;;;;5076381;28;20071;-73
2023/05/19 11:25:42;;;;;;;6.93;2.67;;;;;;;;;;5076026;28;20060;-74
2023/05/19 11:28:11;;;;;;;6.18;1.92;;;;;;;;;;5056084;28;20135;-73
2023/05/19 11:30:43;;;;;;;6.68;2.00;;;;;;;;;;5055439;28;20109;-73
2023/05/19 11:33:10;;;;;;;6.15;2.58;;;;;;;;;;5043731;28;20099;-73
2023/05/19 11:35:37;;;;;;;6.75;2.63;;;;;;;;;;5075916;28;20106;-73
2023/05/19 11:38:06;;;;;;;6.65;2.40;;;;;;;;;;5075653;28;20048;-74
2023/05/19 11:40:32;;;;;;;3.63;2.08;;;;;;;;;;5059339;28;20067;-74
2023/05/19 11:43:00;;;;;;;5.57;2.50;;;;;;;;;;5075301;28;20048;-74
2023/05/19 11:45:28;;;;;;;6.15;2.38;;;;;;;;;;5075599;28;20085;-74
2023/05/19 11:47:56;;;;;;;5.63;2.30;;;;;;;;;;5059402;28;20063;-74
2023/05/19 11:50:30;;;;;;;;;;;;;;;;;;5045360;28;20127;-74
2023/05/19 11:52:58;;;;;;;7.22;2.60;;;;;;;;;;5075728;28;20003;-74
2023/05/19 11:55:26;;;;;;;7.40;2.55;;;;;;;;;;5058981;28;20526;-74
2023/05/19 11:58:02;;;;;;;7.50;2.63;;;;;;;;;;5075461;28;20052;-74
2023/05/19 12:00:39;;;;;;;5.47;2.40;;;;;;;;;;5075442;28;20049;-72
2023/05/19 12:03:06;;;;;;;7.68;2.22;;;;;;;;;;5076154;28;20052;-74
2023/05/19 12:05:44;;;;;;;6.00;3.25;;;;;;;;;;5077389;28;20048;-74
2023/05/19 12:08:13;;;;;;;4.85;2.45;;;;;;;;;;5060077;28;20081;-75
2023/05/19 12:10:40;;;;;;;6.88;2.80;;;;;;;;;;5075459;28;20052;-74
2023/05/19 12:13:08;;;;;;;10.15;2.40;;;;;;;;;;5074230;28;20463;-74
2023/05/19 12:15:37;;;;;;;7.90;3.05;;;;;;;;;;5074695;28;20059;-75
2023/05/19 12:18:05;;;;;;;4.55;2.10;;;;;;;;;;5073846;28;20764;-75
2023/05/19 12:20:34;;;;;;;6.15;2.85;;;;;;;;;;5073305;28;20101;-75
2023/05/19 12:23:01;;;;;;;4.85;2.83;;;;;;;;;;5057650;28;20137;-75
2023/05/19 12:25:28;;;;;;;6.10;2.22;;;;;;;;;;5073409;28;20087;-74
2023/05/19 12:28:01;;;;;;;7.05;2.20;;;;;;;;;;5073194;28;20059;-74
2023/05/19 12:30:29;;;;;;;8.00;2.85;;;;;;;;;;5073545;28;20060;-74
2023/05/19 12:32:57;;;;;;;9.30;3.15;;;;;;;;;;5073436;28;20075;-75
2023/05/19 12:35:28;;;;;;;4.50;2.22;;;;;;;;;;5091345;28;20131;-74
2023/05/19 12:37:55;;;;;;;7.53;2.65;;;;;;;;;;5057161;28;20063;-75
2023/05/19 12:40:21;;;;;;;7.00;2.05;;;;;;;;;;5073293;28;20044;-74
2023/05/19 12:42:50;;;;;;;7.80;2.65;;;;;;;;;;5056797;28;20105;-74
2023/05/19 12:45:20;;;;;;;7.45;2.38;;;;;;;;;;5073278;28;20051;-75
2023/05/19 12:47:47;;;;;;;6.90;2.67;;;;;;;;;;5073309;28;20092;-74
2023/05/19 12:50:15;;;;;;;4.15;2.53;;;;;;;;;;5056582;28;20055;-74
2023/05/19 12:52:46;;;;;;;5.00;2.20;;;;;;;;;;5073149;28;20056;-75
2023/05/19 12:55:15;;;;;;;6.63;2.20;;;;;;;;;;5072849;28;20558;-74
2023/05/19 12:57:43;;;;;;;4.93;2.35;;;;;;;;;;5056518;28;20415;-75
2023/05/19 13:00:21;;;;;;;9.07;2.70;;;;;;;;;;5072683;28;20058;-75
2023/05/19 13:03:00;;;;;;;6.03;2.92;;;;;;;;;;5073308;28;20056;-74
2023/05/19 13:05:28;;;;;;;5.35;2.78;;;;;;;;;;5072953;28;20412;-74
2023/05/19 13:08:06;;;;;;;8.07;3.20;;;;;;;;;;5072492;28;20060;-74
2023/05/19 13:10:34;;;;;;;6.30;2.75;;;;;;;;;;5056174;28;20052;-74
2023/05/19 13:13:02;;;;;;;6.38;2.42;;;;;;;;;;5072823;28;20056;-75
2023/05/19 13:15:32;;;;;;;6.13;2.15;;;;;;;;;;5072489;28;20043;-74
2023/05/19 13:18:02;;;;;;;6.32;2.45;;;;;;;;;;5072831;28;20139;-74
2023/05/19 13:20:29;;;;;;;6.72;2.25;;;;;;;;;;5072437;28;20500;-74
2023/05/19 13:22:56;;;;;;;6.05;2.58;;;;;;;;;;5072592;28;20047;-75
2023/05/19 13:25:23;;;;;;;6.40;2.38;;;;;;;;;;5072657;28;20074;-75
2023/05/19 13:27:50;;;;;;;6.25;2.53;;;;;;;;;;5072518;28;20055;-74
2023/05/19 13:30:18;;;;;;;5.78;2.50;;;;;;;;;;5072392;28;20048;-75
2023/05/19 13:32:45;;;;;;;6.85;2.58;;;;;;;;;;5072286;28;20060;-75
2023/05/19 13:35:12;;;;;;;6.82;2.65;;;;;;;;;;5071549;28;20083;-74
2023/05/19 13:37:40;;;;;;;12.35;2.90;;;;;;;;;;5074789;28;20518;-75
2023/05/19 13:40:08;;;;;;;8.40;2.90;;;;;;;;;;5057551;28;20055;-75
2023/05/19 13:42:35;;;;;;;6.15;3.33;;;;;;;;;;5072177;28;20058;-75
2023/05/19 13:45:02;;;;;;;6.03;2.83;;;;;;;;;;5071976;28;20052;-73
2023/05/19 13:47:29;;;;;;;5.80;2.58;;;;;;;;;;5055760;28;20522;-75
2023/05/19 13:49:56;;;;;;;6.55;2.63;;;;;;;;;;5071745;28;20523;-75
2023/05/19 13:52:23;;;;;;;5.18;2.33;;;;;;;;;;5072229;28;20125;-75
2023/05/19 13:54:53;;;;;;;7.55;2.28;;;;;;;;;;5072343;28;20056;-75
2023/05/19 13:57:20;;;;;;;5.50;2.60;;;;;;;;;;5072224;28;20067;-75
2023/05/19 13:59:47;;;;;;;7.60;2.75;;;;;;;;;;5071744;28;20052;-75
2023/05/19 14:02:28;;;;;;;4.35;2.42;;;;;;;;;;5073830;28;20434;-75
2023/05/19 14:04:56;;;;;;;8.98;2.50;;;;;;;;;;5071850;28;20079;-75
2023/05/19 14:07:24;;;;;;;7.07;2.20;;;;;;;;;;5071982;28;20500;-75
2023/05/19 14:09:51;;;;;;;5.28;2.42;;;;;;;;;;5071694;28;20067;-75
2023/05/19 14:12:18;;;;;;;6.72;2.45;;;;;;;;;;5071734;28;20105;-75
2023/05/19 14:14:50;;;;;;;7.20;2.70;;;;;;;;;;5072777;28;20478;-75
2023/05/19 14:17:17;;;;;;;4.90;2.33;;;;;;;;;;5071761;28;20063;-76
2023/05/19 14:19:44;;;;;;;5.50;2.33;;;;;;;;;;5071495;28;20759;-76
2023/05/19 14:22:12;;;;;;;8.60;2.50;;;;;;;;;;5071753;28;20048;-76
2023/05/19 14:24:40;;;;;;;11.10;5.63;;;;;;;;;;5071940;28;20055;-75
2023/05/19 14:27:07;;;;;;;6.75;2.55;;;;;;;;;;5065860;28;20056;-75
2023/05/19 14:29:34;;;;;;;7.47;3.60;;;;;;;;;;5054231;28;20060;-76
2023/05/19 14:32:01;;;;;;;4.30;2.47;;;;;;;;;;5054645;28;20056;-76
2023/05/19 14:34:29;;;;;;;5.05;2.42;;;;;;;;;;5072646;28;20048;-76
2023/05/19 14:36:56;;;;;;;9.00;4.07;;;;;;;;;;5033327;28;20520;-76
2023/05/19 14:39:22;;;;;;;7.07;2.90;;;;;;;;;;5051502;28;20103;-76
2023/05/19 14:41:50;;;;;;;5.40;2.75;;;;;;;;;;5034829;28;20059;-76
2023/05/19 14:44:17;;;;;;;8.40;2.40;;;;;;;;;;5051301;28;20534;-75
2023/05/19 14:46:44;;;;;;;4.38;2.17;;;;;;;;;;5055512;28;20459;-76
2023/05/19 14:49:11;;;;;;;5.32;2.40;;;;;;;;;;5054156;28;20208;-76
2023/05/19 14:51:38;;;;;;;7.68;2.67;;;;;;;;;;5075311;28;20048;-75
2023/05/19 14:54:04;;;;;;;9.18;3.17;;;;;;;;;;5075385;28;20087;-75
2023/05/19 14:56:31;;;;;;;5.43;2.53;;;;;;;;;;5075414;28;20492;-76